Time;durP1;ratioP1;P1;durP2;ratioP2;P2;SDS_P1;SDS_P2;PMS_P1;PMS_P2;Temp;Humidity;BMP_temperature;BMP_pressure;BME280_temperature;BME280_humidity;BME280_pressure;Samples;Min_cycle;Max_cycle;Signal;HPM_P1;HPM_P2
2021/10/18 00:01:10;;;;;;;28.80;20.55;;;;;;;9.77;71.36;99257.19;5034649;28;20063;-51
2021/10/18 00:03:36;;;;;;;10.95;8.75;;;;;;;9.74;71.23;99257.56;5052549;28;20062;-51
2021/10/18 00:06:02;;;;;;;10.93;8.82;;;;;;;9.64;71.18;99259.66;5052522;28;20066;-51
2021/10/18 00:08:27;;;;;;;12.20;9.23;;;;;;;9.59;71.08;99254.13;5034572;28;20514;-51
2021/10/18 00:10:53;;;;;;;11.77;8.82;;;;;;;9.52;71.20;99253.22;5051154;28;20056;-51
2021/10/18 00:13:19;;;;;;;13.23;9.02;;;;;;;9.39;70.87;99252.03;5052440;28;20021;-51
2021/10/18 00:15:45;;;;;;;12.57;9.32;;;;;;;9.30;71.79;99255.72;5052311;28;20036;-52
2021/10/18 00:18:13;;;;;;;9.30;8.20;;;;;;;9.18;72.36;99246.66;5034499;28;20036;-51
2021/10/18 00:20:39;;;;;;;13.95;11.52;;;;;;;9.09;72.97;99258.19;5052328;28;20055;-52
2021/10/18 00:23:05;;;;;;;13.00;9.65;;;;;;;9.16;73.21;99252.06;5052215;28;20459;-51
2021/10/18 00:25:31;;;;;;;13.88;8.85;;;;;;;9.15;73.61;99242.56;5052133;28;20104;-51
2021/10/18 00:27:56;;;;;;;11.30;8.38;;;;;;;9.30;73.45;99240.00;5051977;28;20429;-51
2021/10/18 00:30:22;;;;;;;12.68;8.45;;;;;;;9.58;72.58;99245.47;5052114;28;20049;-52
2021/10/18 00:32:48;;;;;;;14.43;9.80;;;;;;;9.74;71.98;99249.72;5034232;28;20039;-52
2021/10/18 00:35:13;;;;;;;21.98;14.05;;;;;;;9.82;71.18;99248.81;5052046;28;20021;-51
2021/10/18 00:37:39;;;;;;;11.25;7.85;;;;;;;9.77;71.14;99251.97;5051957;28;20575;-51
2021/10/18 00:40:06;;;;;;;18.45;8.32;;;;;;;9.71;71.23;99250.06;5034067;28;20052;-52
2021/10/18 00:42:32;;;;;;;10.18;8.00;;;;;;;9.76;71.00;99260.84;5052018;28;20028;-52
2021/10/18 00:44:58;;;;;;;11.05;8.38;;;;;;;9.66;70.98;99262.91;5051814;28;20074;-52
2021/10/18 00:47:24;;;;;;;14.02;9.90;;;;;;;9.58;71.83;99263.81;5051856;28;20399;-51
2021/10/18 00:49:50;;;;;;;9.98;8.98;;;;;;;9.56;71.92;99267.59;5051602;28;20060;-51
2021/10/18 00:52:21;;;;;;;13.32;9.57;;;;;;;9.66;71.90;99262.91;5033878;28;20032;-51
2021/10/18 00:54:48;;;;;;;11.98;8.95;;;;;;;9.75;72.08;99267.06;5051797;28;20032;-51
2021/10/18 00:57:15;;;;;;;13.73;9.23;;;;;;;9.86;71.82;99264.97;5051744;28;20104;-52
2021/10/18 00:59:43;;;;;;;13.15;9.23;;;;;;;9.96;71.24;99260.25;5051690;28;20403;-51
2021/10/18 01:02:09;;;;;;;12.35;8.80;;;;;;;10.00;71.26;99261.56;5051729;28;20020;-52
2021/10/18 01:04:35;;;;;;;11.38;9.05;;;;;;;10.07;70.99;99262.44;5033691;28;20025;-51
2021/10/18 01:07:01;;;;;;;11.52;9.57;;;;;;;10.08;70.30;99258.84;5051624;28;20108;-51
2021/10/18 01:09:27;;;;;;;11.20;9.18;;;;;;;10.05;70.31;99258.38;5033738;28;20107;-52
2021/10/18 01:11:53;;;;;;;12.43;8.65;;;;;;;10.03;70.30;99255.13;5033654;28;20151;-52
2021/10/18 01:14:19;;;;;;;13.23;9.13;;;;;;;10.04;70.15;99256.72;5051593;28;20033;-51
2021/10/18 01:16:44;;;;;;;13.38;9.18;;;;;;;9.87;70.26;99270.03;5051544;28;20028;-52
2021/10/18 01:19:28;;;;;;;11.95;8.20;;;;;;;9.68;70.99;99266.16;5033664;28;20059;-51
2021/10/18 01:22:01;;;;;;;11.65;8.85;;;;;;;9.63;71.57;99271.13;5051540;28;20568;-51
2021/10/18 01:24:28;;;;;;;11.38;8.52;;;;;;;9.66;71.19;99275.19;5051441;28;20498;-51
2021/10/18 01:26:54;;;;;;;12.38;8.63;;;;;;;9.61;71.11;99275.72;5051404;28;20021;-51
2021/10/18 01:29:21;;;;;;;9.95;8.77;;;;;;;9.50;71.58;99268.31;5051437;28;20395;-51
2021/10/18 01:31:47;;;;;;;16.95;8.27;;;;;;;9.52;72.47;99271.56;5051406;28;20495;-50
2021/10/18 01:34:12;;;;;;;10.02;7.65;;;;;;;9.75;71.99;99264.44;5051333;28;20116;-52
2021/10/18 01:36:39;;;;;;;13.70;8.43;;;;;;;9.86;71.02;99259.72;5033429;28;20067;-51
2021/10/18 01:39:04;;;;;;;9.32;7.50;;;;;;;9.78;70.72;99258.84;5033505;28;20064;-51
2021/10/18 01:41:30;;;;;;;13.15;8.18;;;;;;;9.61;70.61;99267.88;5035904;28;20060;-51
2021/10/18 01:43:56;;;;;;;13.30;8.40;;;;;;;9.50;70.81;99271.75;5055155;28;20025;-51
2021/10/18 01:46:22;;;;;;;9.05;7.78;;;;;;;9.39;71.13;99267.72;5055148;28;20027;-51
2021/10/18 01:48:48;;;;;;;12.05;9.00;;;;;;;9.48;71.36;99259.81;5050205;28;20069;-52
2021/10/18 01:51:14;;;;;;;10.25;8.20;;;;;;;9.62;71.52;99263.44;5035468;28;20159;-51
2021/10/18 01:53:40;;;;;;;10.30;8.35;;;;;;;9.59;70.44;99264.59;5035193;28;20390;-52
2021/10/18 01:56:06;;;;;;;12.13;8.88;;;;;;;9.39;70.58;99256.44;5033812;28;20033;-50
2021/10/18 01:58:32;;;;;;;12.68;7.95;;;;;;;9.17;70.90;99256.31;5035141;28;20022;-51
2021/10/18 02:00:59;;;;;;;9.30;8.05;;;;;;;9.16;71.75;99251.28;5035019;28;20033;-51
2021/10/18 02:03:25;;;;;;;13.65;7.90;;;;;;;9.21;71.52;99246.28;5034998;28;20474;-51
2021/10/18 02:05:51;;;;;;;9.48;7.55;;;;;;;9.35;71.45;99242.88;5050132;28;20025;-51
2021/10/18 02:08:16;;;;;;;9.68;7.40;;;;;;;9.35;70.73;99236.84;5033627;28;20021;-51
2021/10/18 02:10:42;;;;;;;10.13;7.22;;;;;;;9.24;71.14;99245.16;5034840;28;20080;-51
2021/10/18 02:13:08;;;;;;;9.98;7.15;;;;;;;9.26;71.58;99254.44;5033506;28;20571;-51
2021/10/18 02:15:34;;;;;;;10.27;7.30;;;;;;;9.38;70.94;99254.84;5050079;28;20112;-52
2021/10/18 02:18:00;;;;;;;11.82;7.43;;;;;;;9.44;70.78;99246.25;5034670;28;20108;-51
2021/10/18 02:20:26;;;;;;;15.25;7.93;;;;;;;9.45;70.85;99249.69;5034695;28;20117;-51
2021/10/18 02:22:51;;;;;;;9.30;7.55;;;;;;;9.44;70.72;99256.75;5033338;28;20492;-51
2021/10/18 02:25:17;;;;;;;11.02;6.97;;;;;;;9.48;70.93;99257.22;5034509;28;20413;-51
2021/10/18 02:27:43;;;;;;;8.13;7.25;;;;;;;9.57;70.93;99261.34;5034521;28;20503;-51
2021/10/18 02:30:10;;;;;;;10.60;6.70;;;;;;;9.59;70.60;99259.38;5034506;28;20029;-51
2021/10/18 02:32:37;;;;;;;13.07;8.82;;;;;;;9.65;70.34;99256.03;5034420;28;20032;-51
2021/10/18 02:35:04;;;;;;;9.05;6.70;;;;;;;9.87;70.31;99269.22;5034379;28;20025;-52
2021/10/18 02:37:31;;;;;;;11.90;8.77;;;;;;;10.00;69.57;99266.81;5034336;28;20075;-51
2021/10/18 02:39:56;;;;;;;17.65;8.13;;;;;;;9.86;69.17;99244.84;5034313;28;20487;-51
2021/10/18 02:42:22;;;;;;;10.82;6.53;;;;;;;9.86;69.23;99249.25;5034246;28;20025;-51
2021/10/18 02:44:48;;;;;;;10.50;7.18;;;;;;;9.80;68.87;99241.13;5049426;28;20036;-51
2021/10/18 02:47:14;;;;;;;8.95;6.70;;;;;;;9.64;68.94;99259.66;5034217;28;20108;-51
2021/10/18 02:49:40;;;;;;;9.40;6.38;;;;;;;9.50;69.45;99263.88;5048270;28;20041;-51
2021/10/18 02:52:05;;;;;;;8.70;7.13;;;;;;;9.41;69.62;99259.69;5053920;28;20029;-51
2021/10/18 02:54:31;;;;;;;8.13;6.45;;;;;;;9.33;69.91;99249.31;5053992;28;20048;-51
2021/10/18 02:56:57;;;;;;;9.48;6.13;;;;;;;9.21;70.56;99227.97;5053868;28;20024;-50
2021/10/18 02:59:23;;;;;;;8.75;7.00;;;;;;;9.09;71.06;99224.16;5035958;28;20079;-51
2021/10/18 03:01:48;;;;;;;10.40;7.10;;;;;;;9.07;71.79;99241.84;5053763;28;20025;-50
2021/10/18 03:04:14;;;;;;;10.80;6.75;;;;;;;9.23;71.50;99244.31;5053704;28;20021;-51
2021/10/18 03:06:40;;;;;;;9.20;6.47;;;;;;;9.37;70.72;99254.00;5053749;28;20059;-51
2021/10/18 03:09:06;;;;;;;7.43;6.68;;;;;;;9.38;70.71;99266.13;5053657;28;20478;-51
2021/10/18 03:11:32;;;;;;;8.85;6.35;;;;;;;9.36;70.83;99241.91;5053654;28;20021;-51
2021/10/18 03:13:58;;;;;;;10.45;6.50;;;;;;;9.45;71.07;99241.84;5035714;28;20071;-52
2021/10/18 03:16:24;;;;;;;9.65;6.78;;;;;;;9.62;70.41;99238.06;5053564;28;20037;-51
2021/10/18 03:18:50;;;;;;;9.57;6.07;;;;;;;9.77;70.44;99243.28;5035535;28;20021;-51
2021/10/18 03:21:18;;;;;;;9.93;6.53;;;;;;;9.83;69.98;99237.31;5053422;28;20109;-52
2021/10/18 03:23:44;;;;;;;8.45;6.28;;;;;;;9.94;69.93;99242.13;5053337;28;20021;-51
2021/10/18 03:26:10;;;;;;;6.43;5.63;;;;;;;10.04;69.03;99238.38;5053340;28;20025;-51
2021/10/18 03:28:36;;;;;;;9.00;5.88;;;;;;;9.95;69.26;99235.06;5035301;28;20028;-51
2021/10/18 03:31:02;;;;;;;9.30;5.88;;;;;;;9.95;68.85;99241.09;5035403;28;20384;-51
2021/10/18 03:33:35;;;;;;;9.30;6.50;;;;;;;9.89;69.31;99241.03;5051888;28;20401;-51
2021/10/18 03:36:02;;;;;;;9.98;6.15;;;;;;;9.90;69.04;99246.09;5053152;28;20117;-51
2021/10/18 03:38:28;;;;;;;12.80;6.40;;;;;;;9.89;69.22;99249.69;5053168;28;20024;-52
2021/10/18 03:40:53;;;;;;;14.80;6.35;;;;;;;9.87;69.38;99256.94;5053017;28;20029;-51
2021/10/18 03:43:22;;;;;;;9.60;6.80;;;;;;;9.81;69.62;99252.41;5053026;28;20013;-51
2021/10/18 03:45:48;;;;;;;12.18;6.82;;;;;;;9.78;69.56;99253.59;5052914;28;20494;-51
2021/10/18 03:48:14;;;;;;;11.13;7.05;;;;;;;9.72;69.83;99248.28;5052666;28;20032;-51
2021/10/18 03:50:41;;;;;;;9.38;6.53;;;;;;;9.62;70.09;99247.72;5052953;28;20029;-51
2021/10/18 03:53:07;;;;;;;8.77;6.63;;;;;;;9.69;70.42;99254.66;5052880;28;20021;-52
2021/10/18 03:55:33;;;;;;;12.82;6.40;;;;;;;9.78;70.11;99266.72;5034898;28;20053;-52
2021/10/18 03:57:59;;;;;;;11.30;6.75;;;;;;;9.80;69.75;99266.53;5034885;28;20056;-51
2021/10/18 04:00:27;;;;;;;11.13;6.93;;;;;;;9.83;70.08;99266.16;5052737;28;20028;-51
2021/10/18 04:02:53;;;;;;;10.32;7.10;;;;;;;9.79;69.71;99270.94;5052252;28;20025;-51
2021/10/18 04:05:19;;;;;;;9.60;6.25;;;;;;;9.78;69.77;99271.94;5034561;28;20106;-51
2021/10/18 04:07:47;;;;;;;11.45;6.45;;;;;;;9.75;70.07;99269.66;5052619;28;20036;-51
2021/10/18 04:10:14;;;;;;;14.88;6.57;;;;;;;9.80;70.04;99290.94;5052836;28;20115;-51
2021/10/18 04:12:40;;;;;;;14.07;6.32;;;;;;;9.80;69.78;99293.56;5052560;28;20027;-51
2021/10/18 04:15:07;;;;;;;14.45;6.82;;;;;;;9.64;69.39;99306.81;5052407;28;20115;-51
2021/10/18 04:17:32;;;;;;;12.20;6.63;;;;;;;9.46;70.25;99309.78;5034490;28;20035;-51
2021/10/18 04:19:58;;;;;;;11.85;6.95;;;;;;;9.53;69.90;99312.50;5051099;28;20021;-50
2021/10/18 04:22:24;;;;;;;12.13;7.35;;;;;;;9.44;68.62;99309.13;5052320;28;20061;-52
2021/10/18 04:24:50;;;;;;;10.45;6.50;;;;;;;9.18;69.32;99306.91;5052147;28;20067;-51
2021/10/18 04:27:16;;;;;;;9.45;6.35;;;;;;;8.96;69.21;99311.97;5034301;28;20033;-51
2021/10/18 04:29:42;;;;;;;11.98;7.20;;;;;;;8.83;70.35;99318.75;5052090;28;20074;-52
2021/10/18 04:32:08;;;;;;;11.40;6.50;;;;;;;8.78;70.65;99314.03;5052162;28;20056;-51
2021/10/18 04:34:34;;;;;;;12.13;6.75;;;;;;;8.74;71.07;99305.72;5052036;28;20071;-51
2021/10/18 04:36:59;;;;;;;12.05;6.30;;;;;;;8.72;71.02;99302.47;5034197;28;20029;-51
2021/10/18 04:39:25;;;;;;;9.85;6.40;;;;;;;8.71;71.45;99305.25;5034089;28;20033;-51
2021/10/18 04:41:51;;;;;;;11.10;6.55;;;;;;;8.67;71.49;99306.56;5034045;28;20029;-51
2021/10/18 04:44:17;;;;;;;7.80;6.30;;;;;;;8.77;71.78;99304.56;5051900;28;20044;-52
2021/10/18 04:46:42;;;;;;;6.93;5.70;;;;;;;8.89;71.52;99305.78;5033978;28;20028;-51
2021/10/18 04:49:08;;;;;;;15.02;6.88;;;;;;;8.94;70.96;99313.94;5033726;28;20041;-51
2021/10/18 04:51:34;;;;;;;14.57;6.93;;;;;;;8.96;71.29;99316.38;5051808;28;20024;-51
2021/10/18 04:54:00;;;;;;;11.73;6.53;;;;;;;8.91;71.38;99314.28;5051855;28;20184;-52
2021/10/18 04:56:26;;;;;;;11.13;7.70;;;;;;;8.92;71.03;99315.09;5051820;28;20183;-51
2021/10/18 04:58:53;;;;;;;15.80;11.23;;;;;;;8.95;71.43;99327.84;5033866;28;20033;-51
2021/10/18 05:01:19;;;;;;;10.98;6.38;;;;;;;9.11;71.20;99325.09;5051712;28;20024;-50
2021/10/18 05:03:45;;;;;;;12.88;7.75;;;;;;;9.27;70.86;99325.97;5051559;28;20024;-51
2021/10/18 05:06:11;;;;;;;9.90;7.82;;;;;;;9.33;70.38;99326.06;5051620;28;20018;-51
2021/10/18 05:08:37;;;;;;;16.92;9.80;;;;;;;9.30;70.26;99326.44;5033688;28;20025;-51
2021/10/18 05:11:02;;;;;;;11.73;7.30;;;;;;;9.22;70.17;99326.50;5051646;28;20065;-51
2021/10/18 05:13:28;;;;;;;13.27;8.75;;;;;;;9.18;70.56;99330.47;5051624;28;20021;-51
2021/10/18 05:15:54;;;;;;;11.82;6.57;;;;;;;9.19;70.77;99324.22;5053217;28;20414;-51
2021/10/18 05:18:21;;;;;;;9.30;6.05;;;;;;;9.33;70.35;99326.06;5055752;28;20495;-51
2021/10/18 05:20:48;;;;;;;9.32;6.57;;;;;;;9.40;70.49;99321.78;5037682;28;20021;-51
2021/10/18 05:23:14;;;;;;;15.27;8.13;;;;;;;9.37;71.46;99318.69;5055943;28;20106;-51
2021/10/18 05:25:39;;;;;;;12.73;8.20;;;;;;;9.31;72.12;99316.78;5055512;28;20440;-51
2021/10/18 05:28:06;;;;;;;10.50;7.40;;;;;;;9.12;72.40;99318.06;5055542;28;20048;-51
2021/10/18 05:30:32;;;;;;;16.02;8.70;;;;;;;8.90;72.35;99333.59;5055479;28;20033;-51
2021/10/18 05:32:59;;;;;;;16.58;9.75;;;;;;;8.78;73.09;99322.69;5037643;28;20024;-51
2021/10/18 05:35:26;;;;;;;12.88;7.78;;;;;;;8.77;73.77;99325.50;5055423;28;20096;-51
2021/10/18 05:37:52;;;;;;;13.65;9.48;;;;;;;8.76;73.46;99323.88;5037514;28;20490;-51
2021/10/18 05:40:20;;;;;;;12.35;7.68;;;;;;;8.74;73.38;99326.66;5055343;28;20037;-51
2021/10/18 05:42:46;;;;;;;18.17;7.78;;;;;;;8.80;73.83;99331.19;5055319;28;20119;-51
2021/10/18 05:45:13;;;;;;;22.48;7.82;;;;;;;8.98;73.21;99336.16;5055182;28;20021;-50
2021/10/18 05:47:51;;;;;;;17.33;6.72;;;;;;;9.21;72.83;99340.56;5053896;28;20502;-51
2021/10/18 05:50:17;;;;;;;8.15;6.45;;;;;;;9.14;71.99;99337.84;5054921;28;20056;-50
2021/10/18 05:52:43;;;;;;;20.35;7.65;;;;;;;9.02;72.17;99339.25;5055138;28;20029;-51
2021/10/18 05:55:09;;;;;;;20.58;8.32;;;;;;;9.12;72.26;99345.06;5055016;28;20523;-51
2021/10/18 05:57:56;;;;;;;37.75;10.35;;;;;;;9.36;72.38;99348.50;5055024;28;20040;-51
2021/10/18 06:00:24;;;;;;;37.95;10.20;;;;;;;9.43;71.27;99348.59;5037076;28;20078;-51
2021/10/18 06:02:51;;;;;;;39.00;10.75;;;;;;;9.41;71.36;99354.00;5054923;28;20013;-51
2021/10/18 06:05:18;;;;;;;27.77;9.20;;;;;;;9.53;71.28;99359.66;5055134;28;20029;-51
2021/10/18 06:07:44;;;;;;;46.05;8.80;;;;;;;9.52;70.90;99361.47;5036930;28;20021;-51
2021/10/18 06:10:12;;;;;;;73.95;11.45;;;;;;;9.50;70.41;99371.31;5054776;28;20033;-51
2021/10/18 06:12:39;;;;;;;32.30;9.65;;;;;;;9.42;69.58;99362.69;5054788;28;20021;-51
2021/10/18 06:15:06;;;;;;;44.38;10.57;;;;;;;9.25;69.21;99357.56;5054723;28;20033;-51
2021/10/18 06:17:32;;;;;;;13.65;7.30;;;;;;;9.17;69.81;99360.25;5054677;28;20110;-50
2021/10/18 06:19:58;;;;;;;22.23;10.75;;;;;;;9.15;70.13;99357.81;5054637;28;20024;-51
2021/10/18 06:22:24;;;;;;;16.10;7.93;;;;;;;9.25;69.94;99362.81;5053237;28;20021;-51
2021/10/18 06:24:50;;;;;;;28.02;11.25;;;;;;;9.39;70.17;99364.66;5054434;28;20018;-50
2021/10/18 06:27:18;;;;;;;22.83;9.15;;;;;;;9.66;70.17;99362.50;5036084;28;20411;-51
2021/10/18 06:29:45;;;;;;;14.98;7.53;;;;;;;10.06;69.54;99370.97;5054361;28;20044;-51
2021/10/18 06:32:11;;;;;;;19.63;8.88;;;;;;;10.37;68.36;99372.63;5054419;28;20029;-50
2021/10/18 06:34:37;;;;;;;12.27;7.47;;;;;;;10.76;67.40;99374.91;5054289;28;20520;-51
2021/10/18 06:37:02;;;;;;;19.45;7.53;;;;;;;11.16;66.59;99377.97;5036349;28;20060;-51
2021/10/18 06:39:28;;;;;;;35.85;8.05;;;;;;;12.06;65.22;99380.97;5054293;28;20398;-50
2021/10/18 06:41:54;;;;;;;24.60;7.22;;;;;;;13.25;61.92;99381.66;5054216;28;20028;-51
2021/10/18 06:44:20;;;;;;;43.97;9.23;;;;;;;14.27;59.08;99377.78;5054113;28;20037;-51
2021/10/18 06:46:49;;;;;;;23.35;7.60;;;;;;;15.09;56.50;99393.94;5054161;28;20025;-51
2021/10/18 06:49:15;;;;;;;31.00;7.88;;;;;;;15.53;55.04;99399.34;5053849;28;20051;-51
2021/10/18 06:51:50;;;;;;;32.83;8.23;;;;;;;16.07;53.33;99402.41;5054001;28;20442;-50
2021/10/18 06:54:17;;;;;;;25.60;7.60;;;;;;;16.43;52.03;99398.16;5053986;28;20029;-52
2021/10/18 06:56:45;;;;;;;33.47;8.40;;;;;;;16.78;50.37;99406.28;5053940;28;20025;-52
2021/10/18 06:59:16;;;;;;;34.80;7.20;;;;;;;17.21;49.80;99391.31;5035979;28;20024;-52
2021/10/18 07:01:42;;;;;;;32.92;8.48;;;;;;;17.62;48.42;99390.47;5052512;28;20112;-51
2021/10/18 07:04:09;;;;;;;55.75;9.23;;;;;;;17.89;46.96;99396.19;5053730;28;20561;-49
2021/10/18 07:06:36;;;;;;;32.05;8.25;;;;;;;17.68;46.74;99394.84;5035761;28;20562;-50
2021/10/18 07:09:02;;;;;;;40.95;7.78;;;;;;;17.47;47.40;99398.88;5052382;28;20025;-49
2021/10/18 07:11:29;;;;;;;37.47;8.65;;;;;;;17.45;47.26;99405.44;5053646;28;20013;-48
2021/10/18 07:13:55;;;;;;;47.20;11.45;;;;;;;17.21;47.50;99400.06;5053643;28;20029;-49
2021/10/18 07:16:21;;;;;;;45.10;10.40;;;;;;;16.74;48.32;99411.25;5053488;28;20045;-50
2021/10/18 07:18:47;;;;;;;49.72;9.93;;;;;;;16.43;48.97;99416.72;5035559;28;20060;-50
2021/10/18 07:21:13;;;;;;;31.65;8.25;;;;;;;16.13;49.50;99422.69;5053497;28;20013;-49
2021/10/18 07:23:39;;;;;;;30.42;8.38;;;;;;;15.93;49.66;99430.81;5035503;28;20119;-50
2021/10/18 07:26:07;;;;;;;33.55;7.78;;;;;;;15.60;50.04;99426.56;5053294;28;20082;-49
2021/10/18 07:28:34;;;;;;;31.30;8.32;;;;;;;15.33;50.61;99418.81;5053209;28;20407;-51
2021/10/18 07:31:01;;;;;;;38.72;9.80;;;;;;;15.32;50.88;99427.78;5053346;28;20116;-51
2021/10/18 07:33:26;;;;;;;36.40;8.15;;;;;;;15.42;51.21;99429.94;5053551;28;20525;-51
2021/10/18 07:35:55;;;;;;;25.13;7.72;;;;;;;15.75;50.80;99435.06;5053780;28;20025;-51
2021/10/18 07:38:23;;;;;;;30.38;8.43;;;;;;;16.28;49.93;99433.78;5052347;28;20017;-51
2021/10/18 07:40:50;;;;;;;23.15;7.30;;;;;;;16.62;48.93;99438.72;5053078;28;20017;-52
2021/10/18 07:43:17;;;;;;;25.15;8.30;;;;;;;17.17;48.35;99444.00;5053076;28;20507;-52
2021/10/18 07:45:42;;;;;;;28.55;7.93;;;;;;;17.76;47.12;99449.47;5034916;28;20033;-52
2021/10/18 07:48:08;;;;;;;15.98;6.80;;;;;;;18.39;45.72;99448.03;5052830;28;20532;-52
2021/10/18 07:50:34;;;;;;;15.85;7.47;;;;;;;18.96;44.75;99450.81;5035090;28;20060;-52
2021/10/18 07:53:00;;;;;;;19.17;8.68;;;;;;;19.27;43.47;99447.94;5034967;28;20028;-50
2021/10/18 07:55:32;;;;;;;15.48;7.05;;;;;;;19.82;42.74;99449.97;5034897;28;20410;-50
2021/10/18 07:57:58;;;;;;;18.15;7.90;;;;;;;20.24;41.54;99452.22;5052842;28;20033;-49
2021/10/18 08:00:24;;;;;;;23.00;7.28;;;;;;;20.58;41.25;99465.44;5052748;28;20510;-50
2021/10/18 08:02:50;;;;;;;24.75;8.50;;;;;;;21.35;40.01;99461.84;5052703;28;20020;-48
2021/10/18 08:05:17;;;;;;;38.90;9.40;;;;;;;22.24;38.12;99465.03;5052509;28;20025;-49
2021/10/18 08:07:46;;;;;;;39.33;9.35;;;;;;;22.89;37.04;99462.13;5052618;28;20143;-50
2021/10/18 08:10:14;;;;;;;34.97;8.50;;;;;;;23.25;35.52;99462.28;5052504;28;20071;-50
2021/10/18 08:12:40;;;;;;;23.77;8.82;;;;;;;23.55;34.77;99458.84;5052770;28;20024;-50
2021/10/18 08:15:06;;;;;;;19.17;7.60;;;;;;;23.47;34.51;99452.13;5052447;28;20521;-49
2021/10/18 08:17:32;;;;;;;25.30;8.88;;;;;;;23.17;34.21;99450.19;5052380;28;20017;-50
2021/10/18 08:19:58;;;;;;;21.20;8.77;;;;;;;22.99;34.89;99451.47;5052647;28;20491;-50
2021/10/18 08:22:24;;;;;;;22.30;7.65;;;;;;;23.17;35.23;99452.06;5034478;28;20021;-49
2021/10/18 08:24:51;;;;;;;17.65;8.05;;;;;;;23.66;34.80;99444.38;5052350;28;20045;-49
2021/10/18 08:27:17;;;;;;;12.25;6.85;;;;;;;24.29;34.20;99449.41;5052231;28;20072;-48
2021/10/18 08:29:46;;;;;;;14.82;7.55;;;;;;;24.95;33.16;99452.16;5052209;28;20021;-50
2021/10/18 08:32:11;;;;;;;27.50;8.02;;;;;;;25.35;32.29;99444.97;5034258;28;20017;-50
2021/10/18 08:34:37;;;;;;;15.05;7.60;;;;;;;25.61;31.90;99441.00;5034129;28;20091;-50
2021/10/18 08:37:03;;;;;;;9.93;6.72;;;;;;;25.56;31.53;99440.25;5052047;28;20025;-51
2021/10/18 08:40:11;;;;;;;13.82;7.00;;;;;;;25.49;31.44;99429.81;5052052;28;20553;-50
2021/10/18 08:42:28;;;;;;;13.73;6.55;;;;;;;25.59;31.45;99424.34;5043688;28;20482;-50
2021/10/18 08:44:55;;;;;;;13.38;7.07;;;;;;;25.94;31.32;99422.47;5051948;28;20036;-50
2021/10/18 08:47:27;;;;;;;10.82;7.40;;;;;;;26.19;30.99;99416.03;5051920;28;20021;-50
2021/10/18 08:49:54;;;;;;;14.07;7.38;;;;;;;26.34;30.52;99411.56;5051587;28;20053;-51
2021/10/18 08:52:20;;;;;;;13.90;7.55;;;;;;;26.61;30.06;99419.06;5051836;28;20039;-50
2021/10/18 08:54:46;;;;;;;12.27;6.78;;;;;;;26.78;30.01;99415.88;5051823;28;20062;-49
2021/10/18 08:57:13;;;;;;;13.77;5.82;;;;;;;26.98;29.50;99404.03;5050603;28;20029;-50
2021/10/18 08:59:38;;;;;;;11.88;5.40;;;;;;;27.18;29.56;99411.03;5033875;28;20021;-51
2021/10/18 09:02:04;;;;;;;13.00;6.65;;;;;;;27.29;29.47;99413.31;5033863;28;20047;-49
2021/10/18 09:04:39;;;;;;;11.35;6.22;;;;;;;27.42;29.53;99416.34;5051646;28;20017;-50
2021/10/18 09:07:17;;;;;;;13.98;6.82;;;;;;;27.98;29.00;99418.09;5051692;28;20051;-50
2021/10/18 09:09:51;;;;;;;13.73;6.07;;;;;;;28.42;28.41;99416.72;5051714;28;20032;-50
2021/10/18 09:12:30;;;;;;;14.40;6.32;;;;;;;28.96;27.68;99424.28;5033712;28;20033;-50
2021/10/18 09:15:18;;;;;;;11.85;5.72;;;;;;;29.16;27.87;99429.25;5051754;28;20040;-50
2021/10/18 09:17:44;;;;;;;16.23;5.95;;;;;;;29.52;27.02;99433.84;5051597;28;20025;-50
2021/10/18 09:20:22;;;;;;;14.25;5.65;;;;;;;29.68;27.22;99435.03;5051534;28;20032;-50
2021/10/18 09:22:49;;;;;;;16.10;7.47;;;;;;;30.01;26.78;99436.69;5051890;28;20048;-51
2021/10/18 09:25:38;;;;;;;12.63;6.63;;;;;;;29.84;27.45;99440.06;5033572;28;20466;-49
2021/10/18 09:28:14;;;;;;;19.10;9.00;;;;;;;29.41;27.26;99427.06;5051592;28;20029;-50
2021/10/18 09:30:43;;;;;;;9.43;6.43;;;;;;;29.46;27.36;99429.66;5051451;28;20021;-51
2021/10/18 09:33:24;;;;;;;11.35;5.80;;;;;;;29.62;26.90;99433.56;5051455;28;20510;-50
2021/10/18 09:35:51;;;;;;;18.02;7.50;;;;;;;29.21;27.59;99429.13;5033485;28;20025;-50
2021/10/18 09:38:19;;;;;;;16.52;6.25;;;;;;;29.44;27.47;99424.53;5050032;28;20041;-50
2021/10/18 09:40:46;;;;;;;11.48;5.90;;;;;;;29.37;27.01;99426.88;5051353;28;20025;-50
2021/10/18 09:43:14;;;;;;;14.63;5.75;;;;;;;29.01;28.00;99418.75;5051381;28;20028;-49
2021/10/18 09:46:14;;;;;;;10.48;5.13;;;;;;;29.30;27.47;99420.28;5051466;28;20082;-50
2021/10/18 10:53:48;;;;;;;13.02;5.50;;;;;;;31.70;24.92;99388.28;5054294;28;20033;-50
2021/10/18 10:56:16;;;;;;;10.52;4.47;;;;;;;31.98;24.55;99390.59;5053927;28;20499;-50
2021/10/18 10:58:51;;;;;;;5.75;4.93;;;;;;;32.07;24.26;99383.22;5053894;28;20083;-51
2021/10/18 11:01:35;;;;;;;;;;;;;;;32.15;24.76;99379.66;5054495;28;20123;-51
2021/10/18 11:04:31;;;;;;;11.10;4.50;;;;;;;31.89;24.64;99378.94;5053763;28;20374;-50
2021/10/18 11:07:02;;;;;;;7.13;4.68;;;;;;;32.31;23.63;99374.47;5053665;28;20053;-49
2021/10/18 11:09:44;;;;;;;7.20;4.80;;;;;;;32.76;23.21;99379.31;5053781;28;20032;-49
2021/10/18 11:12:22;;;;;;;6.38;4.00;;;;;;;32.86;23.01;99377.31;5053480;28;20036;-48
2021/10/18 11:14:57;;;;;;;8.20;4.50;;;;;;;32.87;22.89;99374.25;5052909;28;20029;-47
2021/10/18 11:17:29;;;;;;;7.97;4.43;;;;;;;32.32;23.08;99365.19;5053511;28;20043;-49
2021/10/18 11:20:04;;;;;;;12.95;5.60;;;;;;;31.90;23.90;99356.91;5035678;28;20520;-49
2021/10/18 11:22:39;;;;;;;10.85;4.80;;;;;;;31.93;23.65;99358.97;5053503;28;20029;-49
2021/10/18 11:25:13;;;;;;;7.05;4.70;;;;;;;31.34;23.84;99359.59;5053187;28;20510;-50
2021/10/18 11:27:41;;;;;;;9.60;5.40;;;;;;;30.67;24.79;99358.19;5053196;28;20064;-51
2021/10/18 11:30:14;;;;;;;6.05;4.57;;;;;;;30.34;25.16;99341.56;5053342;28;20029;-51
2021/10/18 11:32:41;;;;;;;8.95;5.82;;;;;;;30.15;25.51;99347.25;5053332;28;20036;-50
2021/10/18 11:35:18;;;;;;;12.60;4.80;;;;;;;29.80;26.38;99352.50;5035352;28;20330;-51
2021/10/18 11:37:52;;;;;;;8.35;4.68;;;;;;;30.19;25.56;99350.91;5053236;28;20029;-49
2021/10/18 11:40:22;;;;;;;5.97;4.43;;;;;;;30.66;25.07;99345.75;5053164;28;20107;-50
2021/10/18 11:42:53;;;;;;;4.95;4.22;;;;;;;30.43;24.98;99342.41;5053000;28;20029;-50
2021/10/18 11:45:25;;;;;;;9.57;4.82;;;;;;;30.22;25.25;99348.38;5052977;28;20021;-50
2021/10/18 11:47:52;;;;;;;13.18;5.82;;;;;;;30.44;25.20;99349.38;5053002;28;20040;-50
2021/10/18 11:50:17;;;;;;;7.07;4.65;;;;;;;30.94;24.91;99348.19;5031440;28;20076;-50
2021/10/18 11:52:53;;;;;;;8.63;4.65;;;;;;;31.29;24.72;99345.41;5033269;28;20049;-50
2021/10/18 11:55:32;;;;;;;10.00;5.10;;;;;;;31.50;24.05;99327.38;5032931;28;20087;-50
2021/10/18 11:58:04;;;;;;;11.63;5.57;;;;;;;31.45;23.79;99320.22;5032935;28;20091;-50
2021/10/18 12:00:41;;;;;;;11.43;8.13;;;;;;;31.02;24.11;99325.69;5032852;28;20029;-51
2021/10/18 12:03:13;;;;;;;10.10;4.57;;;;;;;30.79;24.61;99325.84;5032797;28;20041;-50
2021/10/18 12:05:45;;;;;;;11.27;4.28;;;;;;;30.54;24.75;99327.41;5032660;28;20030;-51
2021/10/18 12:08:19;;;;;;;4.90;3.90;;;;;;;30.67;24.65;99320.25;5031464;28;20041;-51
2021/10/18 12:10:47;;;;;;;6.35;4.40;;;;;;;30.58;24.72;99322.16;5033012;28;20073;-51
2021/10/18 12:13:36;;;;;;;22.35;11.35;;;;;;;30.14;25.35;99321.25;5031352;28;20052;-51
2021/10/18 12:16:19;;;;;;;46.60;37.33;;;;;;;30.06;25.30;99307.41;5032526;28;20028;-50
2021/10/18 12:18:58;;;;;;;83.50;74.40;;;;;;;30.04;25.58;99308.81;5032816;28;20064;-49
2021/10/18 12:21:35;;;;;;;41.38;13.52;;;;;;;30.37;25.33;99314.66;5032798;28;20029;-50
2021/10/18 12:24:16;;;;;;;30.67;24.00;;;;;;;30.76;25.34;99309.41;5032265;28;20033;-50
2021/10/18 12:26:53;;;;;;;10.90;6.40;;;;;;;31.12;24.85;99311.00;5032352;28;20021;-50
2021/10/18 12:29:25;;;;;;;46.20;33.58;;;;;;;31.28;24.99;99312.09;5032365;28;20029;-50
2021/10/18 12:31:58;;;;;;;54.33;43.58;;;;;;;31.45;23.80;99309.34;5032215;28;20038;-49
2021/10/18 12:34:30;;;;;;;15.27;11.75;;;;;;;31.24;24.33;99311.13;5032296;28;20029;-50
2021/10/18 12:37:05;;;;;;;45.75;27.17;;;;;;;31.36;24.40;99305.84;5032210;28;20033;-50
2021/10/18 12:39:43;;;;;;;40.78;16.48;;;;;;;31.51;24.20;99306.44;5031186;28;20033;-49
2021/10/18 12:42:31;;;;;;;47.00;27.65;;;;;;;31.32;24.50;99318.44;5032032;28;20028;-49